Time;durP1;ratioP1;P1;durP2;ratioP2;P2;SDS_P1;SDS_P2;PMS_P1;PMS_P2;Temp;Humidity;BMP_temperature;BMP_pressure;BME280_temperature;BME280_humidity;BME280_pressure;Samples;Min_cycle;Max_cycle;Signal;HPM_P1;HPM_P2
2023/07/04 00:01:13;;;;;;;8.57;1.48;;;12.80;99.90;;;;;;5003003;28;20715;-72
2023/07/04 00:03:42;;;;;;;6.55;1.50;;;12.70;99.90;;;;;;5018842;28;20053;-72
2023/07/04 00:06:13;;;;;;;7.68;1.58;;;12.70;99.90;;;;;;5016690;28;20122;-72
2023/07/04 00:08:39;;;;;;;5.45;1.40;;;12.70;99.90;;;;;;5014875;28;20196;-72
2023/07/04 00:11:06;;;;;;;10.10;1.42;;;12.70;99.90;;;;;;4999998;28;20052;-72
2023/07/04 00:13:34;;;;;;;12.02;1.50;;;12.70;99.90;;;;;;5017084;28;20041;-72
2023/07/04 00:16:01;;;;;;;12.30;1.80;;;12.70;99.90;;;;;;5016668;28;20056;-72
2023/07/04 00:18:28;;;;;;;9.88;1.50;;;12.60;99.90;;;;;;5013587;28;20568;-71
2023/07/04 00:20:58;;;;;;;13.10;1.60;;;12.60;99.90;;;;;;5018595;28;20129;-71
2023/07/04 00:23:26;;;;;;;10.68;1.88;;;12.60;99.90;;;;;;5017071;28;20041;-72
2023/07/04 00:25:52;;;;;;;6.88;1.20;;;12.60;99.90;;;;;;5016706;28;20053;-72
2023/07/04 00:28:21;;;;;;;11.45;1.90;;;12.60;99.90;;;;;;5016842;28;20042;-71
2023/07/04 00:30:47;;;;;;;12.40;1.50;;;12.50;99.90;;;;;;5020165;28;20053;-71
2023/07/04 00:33:13;;;;;;;7.47;1.20;;;12.50;99.90;;;;;;5016951;28;20055;-73
2023/07/04 00:35:45;;;;;;;5.57;1.20;;;12.50;99.90;;;;;;5016784;28;20081;-71
2023/07/04 00:38:12;;;;;;;8.57;1.40;;;12.50;99.90;;;;;;5015314;28;20052;-71
2023/07/04 00:40:38;;;;;;;4.05;0.93;;;12.50;99.90;;;;;;5013182;28;20041;-71
2023/07/04 00:43:04;;;;;;;9.93;1.58;;;12.50;99.90;;;;;;5013426;28;20056;-71
2023/07/04 00:45:35;;;;;;;6.57;1.42;;;12.50;99.90;;;;;;5015601;28;20045;-72
2023/07/04 00:48:04;;;;;;;9.60;1.35;;;12.50;99.90;;;;;;5013370;28;20045;-72
2023/07/04 00:50:45;;;;;;;7.70;1.50;;;12.40;99.90;;;;;;5014626;28;21029;-72
2023/07/04 00:53:13;;;;;;;10.10;1.60;;;12.40;99.90;;;;;;5021312;28;20144;-72
2023/07/04 00:55:46;;;;;;;6.50;1.40;;;12.30;99.90;;;;;;5021883;28;20106;-72
2023/07/04 00:58:12;;;;;;;9.45;1.75;;;12.30;99.90;;;;;;5007749;28;20049;-73
2023/07/04 01:00:38;;;;;;;7.50;2.38;;;12.30;99.90;;;;;;5024195;28;20041;-72
2023/07/04 01:03:20;;;;;;;8.85;1.33;;;12.30;99.90;;;;;;4999440;28;20057;-72
2023/07/04 01:06:24;;;;;;;8.25;1.80;;;12.30;99.90;;;;;;5020177;28;20056;-72
2023/07/04 01:08:56;;;;;;;10.13;1.40;;;12.20;99.90;;;;;;5023849;28;20045;-72
2023/07/04 01:11:30;;;;;;;9.40;1.90;;;12.30;99.90;;;;;;5020345;28;20041;-73
2023/07/04 01:13:57;;;;;;;6.03;1.35;;;12.30;99.90;;;;;;5020748;28;20809;-70
2023/07/04 01:16:23;;;;;;;5.22;1.42;;;12.20;99.90;;;;;;5021340;28;20103;-71
2023/07/04 01:18:55;;;;;;;8.00;1.40;;;12.20;99.90;;;;;;5017467;28;20578;-71
2023/07/04 01:21:25;;;;;;;6.47;1.60;;;12.20;99.90;;;;;;5023972;28;20116;-72
2023/07/04 01:24:12;;;;;;;13.40;1.83;;;12.20;99.90;;;;;;5021228;28;20043;-71
2023/07/04 01:26:42;;;;;;;5.05;1.20;;;12.20;99.90;;;;;;5019053;28;20120;-72
2023/07/04 01:29:11;;;;;;;7.35;1.50;;;12.20;99.90;;;;;;5020882;28;20464;-72
2023/07/04 01:31:37;;;;;;;5.63;1.23;;;12.20;99.90;;;;;;5021575;28;20047;-72
2023/07/04 01:34:04;;;;;;;8.23;1.60;;;12.10;99.90;;;;;;5022607;28;20045;-72
2023/07/04 01:36:34;;;;;;;8.95;1.45;;;12.10;99.90;;;;;;5021408;28;20042;-72
2023/07/04 01:39:00;;;;;;;8.30;1.55;;;12.10;99.90;;;;;;5014968;28;20085;-72
2023/07/04 01:41:28;;;;;;;5.68;1.50;;;12.10;99.90;;;;;;5022752;28;20049;-67
2023/07/04 01:44:15;;;;;;;4.28;1.52;;;12.10;99.90;;;;;;5001950;28;20050;-67
2023/07/04 01:46:42;;;;;;;9.65;1.25;;;12.10;99.90;;;;;;5023528;28;20068;-67
2023/07/04 01:49:09;;;;;;;6.60;1.48;;;12.10;99.90;;;;;;5018671;28;20056;-67
2023/07/04 01:51:38;;;;;;;5.38;1.27;;;12.10;99.90;;;;;;5005034;28;20964;-66
2023/07/04 01:54:06;;;;;;;10.25;1.50;;;12.10;99.90;;;;;;5006043;28;20064;-66
2023/07/04 01:56:34;;;;;;;6.82;1.55;;;12.10;99.90;;;;;;5013644;28;20045;-66
2023/07/04 01:58:59;;;;;;;6.95;1.58;;;12.10;99.90;;;;;;5027227;28;20073;-66
2023/07/04 02:01:25;;;;;;;8.55;1.70;;;12.10;99.90;;;;;;5027388;28;20072;-66
2023/07/04 02:03:51;;;;;;;9.35;1.73;;;12.10;99.90;;;;;;5011386;28;20163;-66
2023/07/04 02:06:18;;;;;;;8.80;1.67;;;12.10;99.90;;;;;;5009519;28;20046;-66
2023/07/04 02:08:43;;;;;;;6.47;1.95;;;12.10;99.90;;;;;;5009804;28;20107;-67
2023/07/04 02:11:09;;;;;;;8.30;1.65;;;12.10;99.90;;;;;;5028957;28;20495;-67
2023/07/04 02:13:35;;;;;;;8.80;1.70;;;12.10;99.90;;;;;;5026770;28;20045;-67
2023/07/04 02:16:01;;;;;;;8.13;1.52;;;12.10;99.90;;;;;;5027206;28;20079;-66
2023/07/04 02:18:26;;;;;;;6.07;1.58;;;12.10;99.90;;;;;;5016679;28;20060;-66
2023/07/04 02:20:52;;;;;;;11.35;2.10;;;12.10;99.90;;;;;;5028795;28;20049;-65
2023/07/04 02:23:18;;;;;;;8.55;2.10;;;12.10;99.90;;;;;;5020226;28;20125;-67
2023/07/04 02:25:44;;;;;;;7.68;1.60;;;12.10;99.90;;;;;;5012229;28;20046;-67
2023/07/04 02:28:11;;;;;;;8.38;1.88;;;12.10;99.90;;;;;;5018064;28;20034;-68
2023/07/04 02:30:37;;;;;;;8.88;1.52;;;12.10;99.90;;;;;;5025700;28;20399;-67
2023/07/04 02:33:03;;;;;;;5.95;1.40;;;12.10;99.90;;;;;;5009354;28;20065;-68
2023/07/04 02:35:30;;;;;;;7.05;1.60;;;12.10;99.90;;;;;;5009490;28;20050;-68
2023/07/04 02:37:56;;;;;;;6.45;1.67;;;12.10;99.90;;;;;;5024353;28;20044;-66
2023/07/04 02:40:23;;;;;;;8.63;1.65;;;12.10;99.90;;;;;;5028867;28;20088;-66
2023/07/04 02:42:49;;;;;;;7.30;1.67;;;12.10;99.90;;;;;;5016767;28;20553;-66
2023/07/04 02:45:15;;;;;;;8.95;1.90;;;12.20;99.90;;;;;;5022372;28;20120;-66
2023/07/04 02:47:41;;;;;;;10.07;2.40;;;12.10;99.90;;;;;;5028012;28;20049;-67
2023/07/04 02:50:07;;;;;;;9.60;2.17;;;12.20;99.90;;;;;;5024592;28;20049;-66
2023/07/04 02:52:32;;;;;;;10.95;1.95;;;12.20;99.90;;;;;;5013073;28;20045;-67
2023/07/04 02:54:58;;;;;;;8.05;1.70;;;12.20;99.90;;;;;;5010568;28;20064;-72
2023/07/04 02:57:24;;;;;;;4.53;1.67;;;12.20;99.90;;;;;;5026560;28;20124;-72
2023/07/04 02:59:50;;;;;;;6.30;1.50;;;12.20;99.90;;;;;;5027925;28;20108;-73
2023/07/04 03:02:17;;;;;;;8.13;1.60;;;12.20;99.90;;;;;;5026887;28;20045;-72
2023/07/04 03:04:43;;;;;;;6.75;1.77;;;12.30;99.90;;;;;;5028311;28;20061;-72
2023/07/04 03:07:09;;;;;;;4.80;1.38;;;12.30;99.90;;;;;;5009023;28;20128;-71
2023/07/04 03:09:38;;;;;;;6.10;1.92;;;12.20;99.90;;;;;;5011356;28;20048;-71
2023/07/04 03:12:04;;;;;;;6.90;1.38;;;12.30;99.90;;;;;;5022236;28;20042;-71
2023/07/04 03:14:29;;;;;;;5.55;1.30;;;12.30;99.90;;;;;;5022169;28;20068;-71
2023/07/04 03:16:55;;;;;;;4.20;1.20;;;12.20;99.90;;;;;;5008156;28;20418;-71
2023/07/04 03:19:21;;;;;;;6.50;1.60;;;12.20;99.90;;;;;;5007690;28;20088;-71
2023/07/04 03:21:46;;;;;;;3.63;1.17;;;12.20;99.90;;;;;;5027437;28;20125;-71
2023/07/04 03:24:12;;;;;;;7.43;1.73;;;12.20;99.90;;;;;;5016258;28;20046;-72
2023/07/04 03:26:38;;;;;;;3.88;1.40;;;12.20;99.90;;;;;;5022994;28;20087;-72
2023/07/04 03:29:06;;;;;;;4.63;1.17;;;12.20;99.90;;;;;;5003117;28;20077;-72
2023/07/04 03:31:32;;;;;;;4.57;1.30;;;12.20;99.90;;;;;;5013648;28;20041;-72
2023/07/04 03:33:57;;;;;;;5.40;1.48;;;12.20;99.90;;;;;;5017393;28;20072;-72
2023/07/04 03:36:23;;;;;;;5.88;1.23;;;12.20;99.90;;;;;;5024138;28;20049;-72
2023/07/04 03:38:49;;;;;;;7.40;1.58;;;12.10;99.90;;;;;;5009725;28;20609;-73
2023/07/04 03:41:15;;;;;;;6.93;1.80;;;12.10;99.90;;;;;;5015862;28;20045;-73
2023/07/04 03:43:41;;;;;;;5.13;1.10;;;12.10;99.90;;;;;;5026426;28;20095;-73
2023/07/04 03:46:06;;;;;;;7.38;1.10;;;12.10;99.90;;;;;;5016569;28;20054;-72
2023/07/04 03:48:32;;;;;;;5.43;1.15;;;12.10;99.90;;;;;;5007534;28;20042;-71
2023/07/04 03:50:58;;;;;;;7.38;1.40;;;12.10;99.90;;;;;;5024280;28;20050;-71
2023/07/04 03:53:24;;;;;;;7.47;1.48;;;12.10;99.90;;;;;;5027096;28;20490;-73
2023/07/04 03:55:50;;;;;;;5.22;1.13;;;12.10;99.90;;;;;;5016411;28;20085;-73
2023/07/04 03:58:17;;;;;;;4.45;1.35;;;12.10;99.90;;;;;;5006681;28;20046;-72
2023/07/04 04:00:47;;;;;;;3.08;1.08;;;12.10;99.90;;;;;;5016288;28;20042;-73
2023/07/04 04:03:12;;;;;;;4.20;1.10;;;12.10;99.90;;;;;;5010718;28;20050;-73
2023/07/04 04:05:41;;;;;;;4.57;1.08;;;12.10;99.90;;;;;;5022429;28;20107;-72
2023/07/04 04:08:06;;;;;;;4.93;1.38;;;12.10;99.90;;;;;;5010862;28;20050;-70
2023/07/04 04:10:51;;;;;;;4.97;1.33;;;12.10;99.90;;;;;;5018016;28;20068;-74
2023/07/04 04:13:35;;;;;;;7.43;1.23;;;12.10;99.90;;;;;;5007896;28;20095;-73
2023/07/04 04:16:21;;;;;;;4.95;1.20;;;12.10;99.90;;;;;;5012317;28;20087;-73
2023/07/04 04:18:49;;;;;;;5.40;1.95;;;12.10;99.90;;;;;;5014324;28;20045;-73
2023/07/04 04:21:15;;;;;;;7.35;1.92;;;12.20;99.90;;;;;;5019301;28;20049;-74
2023/07/04 04:23:40;;;;;;;5.55;1.77;;;12.20;99.90;;;;;;5026180;28;20108;-73
2023/07/04 04:26:07;;;;;;;7.32;1.52;;;12.20;99.90;;;;;;5025639;28;20046;-72
2023/07/04 04:28:32;;;;;;;5.47;1.27;;;12.20;99.90;;;;;;5012879;28;20107;-71
2023/07/04 04:30:58;;;;;;;6.22;1.10;;;12.20;99.90;;;;;;4990950;28;20075;-72
2023/07/04 04:33:25;;;;;;;4.18;1.30;;;12.20;99.90;;;;;;5008284;28;20383;-73
2023/07/04 04:35:51;;;;;;;6.20;1.20;;;12.30;99.90;;;;;;5006906;28;20049;-72
2023/07/04 04:38:17;;;;;;;6.53;1.60;;;12.30;99.90;;;;;;5011792;28;20060;-72
2023/07/04 04:40:43;;;;;;;4.60;1.48;;;12.30;99.90;;;;;;5016916;28;20713;-71
2023/07/04 04:43:09;;;;;;;3.65;1.20;;;12.40;99.90;;;;;;5006487;28;20103;-71
2023/07/04 04:45:35;;;;;;;6.50;1.40;;;12.40;99.90;;;;;;5022569;28;20049;-72
2023/07/04 04:48:01;;;;;;;5.85;1.67;;;12.20;99.90;;;;;;5027083;28;20415;-72
2023/07/04 04:50:31;;;;;;;4.72;1.58;;;12.40;99.90;;;;;;5025648;28;20056;-72
2023/07/04 04:52:58;;;;;;;6.32;1.60;;;12.50;99.90;;;;;;5024970;28;20656;-72
2023/07/04 04:55:24;;;;;;;7.72;1.40;;;12.50;99.90;;;;;;5008204;28;20593;-72
2023/07/04 04:57:50;;;;;;;7.07;1.63;;;12.60;99.90;;;;;;5015896;28;20046;-73
2023/07/04 05:00:16;;;;;;;3.95;1.45;;;12.60;99.90;;;;;;5013510;28;20054;-73
2023/07/04 05:02:45;;;;;;;7.65;1.33;;;12.70;99.90;;;;;;5018235;28;20084;-72
2023/07/04 05:05:16;;;;;;;5.95;1.65;;;12.70;99.90;;;;;;5013931;28;20095;-71
2023/07/04 05:07:41;;;;;;;4.78;1.50;;;12.70;99.90;;;;;;5008814;28;20060;-72
2023/07/04 05:10:09;;;;;;;6.45;1.60;;;12.70;99.90;;;;;;4993561;28;20826;-72
2023/07/04 05:12:34;;;;;;;6.82;2.00;;;12.70;99.90;;;;;;5016407;28;20227;-66
2023/07/04 05:15:00;;;;;;;7.72;1.80;;;12.80;99.90;;;;;;5015010;28;20053;-66
2023/07/04 05:17:26;;;;;;;6.68;1.70;;;12.80;99.90;;;;;;5013629;28;20046;-72
2023/07/04 05:19:52;;;;;;;7.32;1.90;;;12.80;99.90;;;;;;5021508;28;20080;-73
2023/07/04 05:22:18;;;;;;;7.55;2.00;;;12.90;99.90;;;;;;5020762;28;20046;-73
2023/07/04 05:24:44;;;;;;;6.20;1.90;;;13.00;99.90;;;;;;5009266;28;20482;-73
2023/07/04 05:27:10;;;;;;;6.82;2.08;;;13.00;99.90;;;;;;5017580;28;20602;-73
2023/07/04 05:29:36;;;;;;;5.90;1.98;;;13.00;99.90;;;;;;5023701;28;20124;-72
2023/07/04 05:32:02;;;;;;;5.78;1.95;;;13.10;99.90;;;;;;5021459;28;20049;-72
2023/07/04 05:34:27;;;;;;;8.68;2.38;;;13.10;99.90;;;;;;5019545;28;20054;-72
2023/07/04 05:36:54;;;;;;;8.02;2.05;;;13.10;99.90;;;;;;5025914;28;20038;-72
2023/07/04 05:39:20;;;;;;;8.88;1.98;;;13.20;99.90;;;;;;5028304;28;20112;-73
2023/07/04 05:41:45;;;;;;;5.68;1.80;;;13.20;99.90;;;;;;5023403;28;20137;-73
2023/07/04 05:44:11;;;;;;;7.55;1.83;;;13.30;99.90;;;;;;5016308;28;20460;-73
2023/07/04 05:46:38;;;;;;;7.68;1.88;;;13.30;99.90;;;;;;5016899;28;20068;-72
2023/07/04 05:49:04;;;;;;;5.80;1.85;;;13.40;99.90;;;;;;5004471;28;20099;-71
2023/07/04 05:51:31;;;;;;;5.93;1.77;;;13.40;99.90;;;;;;5007432;28;20045;-72
2023/07/04 05:53:57;;;;;;;5.07;1.73;;;13.50;99.90;;;;;;5029856;28;20383;-72
2023/07/04 05:56:25;;;;;;;6.18;1.60;;;13.50;99.90;;;;;;5008073;28;20128;-71
2023/07/04 05:58:59;;;;;;;5.50;1.63;;;13.50;99.90;;;;;;5024917;28;20073;-73
2023/07/04 06:01:34;;;;;;;6.82;1.80;;;13.60;99.90;;;;;;5020436;28;20134;-72
2023/07/04 06:04:01;;;;;;;8.52;1.83;;;13.70;99.90;;;;;;5024819;28;20473;-72
2023/07/04 06:06:32;;;;;;;5.28;1.70;;;13.80;99.90;;;;;;5009703;28;20057;-72
2023/07/04 06:09:00;;;;;;;6.50;1.45;;;13.90;99.90;;;;;;5019834;28;20112;-71
2023/07/04 06:11:32;;;;;;;9.35;1.77;;;14.00;99.90;;;;;;5021507;28;20128;-73
2023/07/04 06:13:57;;;;;;;7.28;1.63;;;14.00;99.90;;;;;;5028452;28;20409;-73
2023/07/04 06:16:24;;;;;;;5.93;1.50;;;14.10;99.90;;;;;;5023975;28;20137;-73
2023/07/04 06:18:50;;;;;;;6.78;1.50;;;14.20;99.90;;;;;;5025457;28;20144;-72
2023/07/04 06:21:22;;;;;;;12.55;1.40;;;14.20;99.90;;;;;;5026958;28;20517;-71
2023/07/04 06:23:53;;;;;;;5.97;1.25;;;14.30;99.90;;;;;;5027283;28;20050;-72
2023/07/04 06:26:19;;;;;;;5.00;1.25;;;14.30;99.90;;;;;;5017385;28;20048;-72
2023/07/04 06:28:45;;;;;;;6.50;1.45;;;14.40;99.90;;;;;;5023412;28;20042;-73
2023/07/04 06:31:13;;;;;;;5.78;1.20;;;14.40;99.90;;;;;;5025343;28;20072;-72
2023/07/04 06:33:39;;;;;;;7.35;1.63;;;14.50;99.90;;;;;;5026319;28;20041;-72
2023/07/04 06:36:11;;;;;;;6.97;1.13;;;14.50;99.90;;;;;;5027016;28;20108;-72
2023/07/04 06:38:37;;;;;;;6.25;1.33;;;14.50;99.90;;;;;;5028374;28;20620;-72
2023/07/04 06:41:08;;;;;;;8.18;1.30;;;14.50;99.90;;;;;;5021972;28;20128;-73
2023/07/04 06:43:34;;;;;;;4.07;1.30;;;14.60;99.90;;;;;;5025737;28;20107;-73
2023/07/04 06:46:00;;;;;;;10.48;1.27;;;14.70;99.90;;;;;;4998911;28;20061;-72
2023/07/04 06:48:27;;;;;;;16.13;1.20;;;14.70;99.90;;;;;;5022277;28;20132;-73
2023/07/04 06:51:03;;;;;;;6.97;1.33;;;14.70;99.90;;;;;;5024657;28;20049;-72
2023/07/04 06:53:30;;;;;;;9.05;1.38;;;14.80;99.90;;;;;;5024474;28;20171;-73
2023/07/04 06:56:19;;;;;;;6.50;1.40;;;14.80;99.90;;;;;;5028592;28;20395;-73
2023/07/04 06:58:50;;;;;;;5.40;1.10;;;14.90;99.90;;;;;;5015158;28;20048;-73
2023/07/04 07:01:17;;;;;;;5.10;1.10;;;14.90;99.90;;;;;;5024822;28;20064;-74
2023/07/04 07:03:43;;;;;;;9.23;1.42;;;15.00;99.90;;;;;;5014761;28;20525;-73
2023/07/04 07:06:10;;;;;;;8.90;1.40;;;15.10;99.90;;;;;;5014608;28;20129;-73
2023/07/04 07:08:37;;;;;;;6.78;1.27;;;15.10;99.90;;;;;;5016689;28;20927;-73
2023/07/04 07:11:09;;;;;;;9.35;1.45;;;15.20;99.90;;;;;;5010412;28;20046;-72
2023/07/04 07:13:35;;;;;;;10.23;1.73;;;15.20;99.90;;;;;;5009891;28;20049;-73
2023/07/04 07:16:09;;;;;;;6.53;1.20;;;15.30;99.90;;;;;;5022274;28;20426;-73
2023/07/04 07:18:35;;;;;;;6.32;1.23;;;15.40;99.90;;;;;;5026756;28;20049;-73
2023/07/04 07:21:02;;;;;;;7.32;2.17;;;15.40;99.90;;;;;;5028743;28;20046;-73
2023/07/04 07:23:29;;;;;;;9.75;1.63;;;15.50;99.90;;;;;;5013822;28;20400;-73
2023/07/04 07:25:57;;;;;;;9.68;1.70;;;15.50;99.90;;;;;;5008735;28;20056;-74
2023/07/04 07:28:27;;;;;;;6.70;1.40;;;15.60;99.90;;;;;;5015858;28;20249;-73
2023/07/04 07:31:09;;;;;;;6.32;1.40;;;15.70;99.90;;;;;;5014574;28;20053;-72
2023/07/04 07:33:37;;;;;;;7.82;1.27;;;15.80;99.90;;;;;;5020994;28;20061;-73
2023/07/04 07:36:21;;;;;;;5.82;1.58;;;15.80;99.90;;;;;;5018794;28;20118;-73
2023/07/04 07:38:48;;;;;;;5.80;1.30;;;15.80;99.90;;;;;;5014471;28;20407;-75
2023/07/04 07:41:14;;;;;;;5.03;1.25;;;15.80;99.90;;;;;;5016333;28;20045;-73
2023/07/04 07:43:41;;;;;;;8.77;1.48;;;15.80;99.90;;;;;;5012623;28;20049;-73
2023/07/04 07:46:08;;;;;;;7.95;1.65;;;15.80;99.90;;;;;;5015201;28;20406;-73
2023/07/04 07:48:34;;;;;;;7.18;1.30;;;15.80;99.90;;;;;;5003747;28;20045;-74
2023/07/04 07:51:00;;;;;;;7.40;1.60;;;15.80;99.90;;;;;;5021766;28;20087;-73
2023/07/04 07:53:25;;;;;;;7.68;1.50;;;15.90;99.90;;;;;;5016180;28;20041;-73
2023/07/04 07:55:51;;;;;;;7.43;1.80;;;15.90;99.90;;;;;;5016472;28;20462;-74
2023/07/04 07:58:17;;;;;;;7.60;1.48;;;15.90;99.90;;;;;;5016749;28;20041;-73
2023/07/04 08:00:43;;;;;;;8.40;1.30;;;16.00;99.90;;;;;;5007893;28;20042;-72
2023/07/04 08:03:09;;;;;;;10.45;2.15;;;16.00;99.90;;;;;;5015862;28;20302;-73
2023/07/04 08:05:41;;;;;;;7.50;1.33;;;16.00;99.90;;;;;;5021303;28;20044;-74
2023/07/04 08:08:09;;;;;;;6.72;1.48;;;16.00;99.90;;;;;;5017348;28;20041;-73
2023/07/04 08:10:36;;;;;;;5.07;1.40;;;16.00;99.90;;;;;;5011558;28;20116;-72
2023/07/04 08:13:02;;;;;;;5.80;1.35;;;16.10;99.90;;;;;;5028769;28;20057;-74
2023/07/04 08:15:27;;;;;;;7.95;1.63;;;16.10;99.90;;;;;;5007283;28;20061;-74
2023/07/04 08:17:56;;;;;;;7.88;1.40;;;16.10;99.90;;;;;;4999455;28;20048;-73
2023/07/04 08:20:23;;;;;;;5.82;1.20;;;16.20;99.90;;;;;;4998250;28;20037;-74
2023/07/04 08:22:48;;;;;;;7.57;1.60;;;16.30;99.90;;;;;;5017735;28;20188;-74
2023/07/04 08:25:14;;;;;;;7.72;1.10;;;16.30;99.90;;;;;;5037382;28;20565;-73
2023/07/04 08:27:40;;;;;;;6.75;1.10;;;16.30;99.90;;;;;;5014140;28;20052;-74
2023/07/04 08:30:07;;;;;;;6.38;1.13;;;16.40;99.90;;;;;;5021347;28;20041;-67
2023/07/04 08:32:33;;;;;;;7.78;1.58;;;16.40;99.90;;;;;;5021471;28;20131;-67
2023/07/04 08:35:00;;;;;;;6.80;1.45;;;16.50;99.90;;;;;;5013438;28;20738;-67
2023/07/04 08:37:26;;;;;;;6.90;1.58;;;16.50;99.90;;;;;;5020526;28;20042;-66
2023/07/04 08:39:52;;;;;;;8.50;1.55;;;16.40;99.90;;;;;;5023420;28;20045;-66
2023/07/04 08:42:18;;;;;;;9.93;2.00;;;16.40;99.90;;;;;;5020122;28;20049;-66
2023/07/04 08:44:50;;;;;;;11.27;1.75;;;16.40;99.90;;;;;;5018877;28;20414;-66
2023/07/04 08:47:25;;;;;;;;;;;16.50;99.90;;;;;;5015935;28;20054;-67
2023/07/04 08:50:19;;;;;;;9.05;1.58;;;16.50;99.90;;;;;;5013510;28;19925;-67
2023/07/04 08:53:12;;;;;;;7.45;2.05;;;16.70;99.90;;;;;;5017129;28;20045;-68
2023/07/04 08:56:04;;;;;;;12.48;2.05;;;16.70;99.90;;;;;;5017584;28;20129;-67
2023/07/04 08:58:53;;;;;;;8.77;1.67;;;16.90;99.90;;;;;;5013389;28;20045;-73
2023/07/04 09:01:44;;;;;;;10.77;1.95;;;17.00;99.90;;;;;;5011535;28;20064;-74
2023/07/04 09:04:46;;;;;;;13.70;2.13;;;17.10;99.90;;;;;;5013611;28;20140;-74
2023/07/04 09:07:12;;;;;;;9.70;2.15;;;17.10;99.90;;;;;;5009458;28;20061;-74
2023/07/04 09:09:48;;;;;;;13.23;2.42;;;17.10;99.90;;;;;;5016127;28;20046;-75
2023/07/04 09:12:14;;;;;;;10.95;2.15;;;17.20;99.90;;;;;;5005566;28;20465;-75
2023/07/04 09:15:01;;;;;;;16.90;2.45;;;17.20;99.90;;;;;;5036773;28;20038;-75
2023/07/04 09:17:35;;;;;;;14.57;2.40;;;17.30;99.90;;;;;;5001759;28;20049;-75
2023/07/04 09:20:04;;;;;;;12.32;2.50;;;17.50;99.90;;;;;;5001479;28;20049;-74
2023/07/04 09:22:30;;;;;;;10.10;2.15;;;17.50;99.90;;;;;;5007953;28;20229;-67
2023/07/04 09:24:56;;;;;;;9.95;2.25;;;17.50;99.90;;;;;;4999119;28;20574;-66
2023/07/04 09:27:22;;;;;;;8.18;1.98;;;17.50;99.90;;;;;;5013751;28;20108;-66
2023/07/04 09:29:48;;;;;;;11.82;2.53;;;17.50;99.90;;;;;;5009145;28;20045;-67
2023/07/04 09:32:13;;;;;;;11.85;2.33;;;17.50;99.90;;;;;;5010437;28;20073;-66
2023/07/04 09:34:50;;;;;;;10.45;1.88;;;17.50;99.90;;;;;;5007578;28;20034;-67
2023/07/04 09:37:19;;;;;;;11.95;2.55;;;17.50;99.90;;;;;;5015117;28;20038;-69
2023/07/04 09:39:50;;;;;;;11.18;1.95;;;17.60;99.90;;;;;;5016479;28;20045;-67
2023/07/04 09:42:23;;;;;;;13.90;2.42;;;17.70;99.90;;;;;;5011651;28;20509;-68
2023/07/04 09:44:52;;;;;;;10.85;2.17;;;17.70;99.90;;;;;;5009636;28;20192;-67
2023/07/04 09:47:24;;;;;;;9.02;1.88;;;17.70;99.90;;;;;;5010191;28;20445;-67
2023/07/04 09:50:10;;;;;;;11.93;1.83;;;17.70;99.90;;;;;;5009241;28;20052;-66
2023/07/04 09:52:36;;;;;;;10.48;1.80;;;17.70;99.90;;;;;;5009435;28;20295;-67
2023/07/04 09:55:16;;;;;;;9.57;1.85;;;17.80;99.90;;;;;;5011343;28;20041;-67
2023/07/04 09:57:44;;;;;;;7.35;1.65;;;17.80;99.90;;;;;;5009192;28;20045;-66
2023/07/04 10:00:25;;;;;;;11.48;2.00;;;17.70;99.90;;;;;;4993758;28;20119;-67
2023/07/04 10:02:55;;;;;;;10.40;2.03;;;17.70;99.90;;;;;;5007477;28;20041;-66
2023/07/04 10:05:35;;;;;;;7.85;1.55;;;17.70;99.90;;;;;;5007301;28;20053;-66
2023/07/04 10:08:07;;;;;;;6.45;1.70;;;17.80;99.90;;;;;;5010165;28;20132;-66
2023/07/04 10:10:49;;;;;;;13.48;1.65;;;17.90;99.90;;;;;;5015047;28;20114;-67
2023/07/04 10:13:39;;;;;;;11.50;1.55;;;18.10;99.90;;;;;;5012947;28;20045;-67
2023/07/04 10:16:20;;;;;;;11.15;2.08;;;18.10;99.90;;;;;;5014405;28;20065;-75
2023/07/04 10:18:46;;;;;;;7.80;1.33;;;18.10;99.90;;;;;;4994889;28;20122;-74
2023/07/04 10:21:12;;;;;;;8.55;2.17;;;18.10;99.90;;;;;;5009041;28;20041;-74
2023/07/04 10:23:37;;;;;;;8.10;1.75;;;18.20;99.90;;;;;;5009503;28;20061;-74
2023/07/04 10:26:05;;;;;;;11.90;2.03;;;18.30;99.90;;;;;;5012622;28;20049;-74
2023/07/04 10:28:33;;;;;;;10.90;1.77;;;18.30;99.90;;;;;;5012326;28;20120;-74
2023/07/04 10:31:14;;;;;;;9.77;1.80;;;18.30;99.90;;;;;;5012323;28;20046;-75
2023/07/04 10:34:07;;;;;;;9.75;2.03;;;18.30;99.90;;;;;;5012980;28;20519;-74
2023/07/04 10:36:35;;;;;;;10.57;1.92;;;18.20;99.90;;;;;;5011387;28;20566;-75
2023/07/04 10:39:06;;;;;;;11.23;1.50;;;18.10;99.90;;;;;;5017592;28;20038;-74
2023/07/04 10:41:48;;;;;;;7.25;1.60;;;18.10;99.90;;;;;;5012078;28;20136;-74
2023/07/04 10:44:23;;;;;;;9.80;2.08;;;18.10;99.90;;;;;;5012582;28;20060;-75
2023/07/04 10:46:56;;;;;;;9.05;1.80;;;18.10;99.90;;;;;;4987578;28;20041;-68
2023/07/04 10:49:25;;;;;;;12.60;1.98;;;18.20;99.90;;;;;;5010632;28;20471;-68
2023/07/04 10:52:11;;;;;;;9.27;1.85;;;18.10;99.90;;;;;;5009645;28;20463;-68
2023/07/04 10:54:36;;;;;;;9.90;1.90;;;18.10;99.90;;;;;;4999196;28;20053;-68
2023/07/04 10:57:11;;;;;;;8.05;1.90;;;18.10;99.90;;;;;;5006330;28;20727;-67
2023/07/04 10:59:41;;;;;;;11.85;2.05;;;18.20;99.90;;;;;;5014054;28;20048;-69
2023/07/04 11:02:27;;;;;;;9.65;1.98;;;18.20;99.90;;;;;;5006606;28;20049;-68
2023/07/04 11:04:59;;;;;;;10.63;1.70;;;18.20;99.90;;;;;;4998752;28;20457;-68
2023/07/04 11:07:26;;;;;;;8.32;2.10;;;18.20;99.90;;;;;;5007983;28;20049;-68
2023/07/04 11:09:57;;;;;;;8.82;1.65;;;18.10;99.90;;;;;;4998474;28;20093;-67
2023/07/04 11:12:28;;;;;;;13.70;2.97;;;18.10;99.90;;;;;;5010678;28;20041;-68
2023/07/04 11:15:04;;;;;;;;;;;18.20;99.90;;;;;;5015749;28;20646;-67
2023/07/04 11:17:34;;;;;;;7.13;1.83;;;18.40;99.90;;;;;;5010337;28;19925;-67
2023/07/04 11:20:14;;;;;;;14.98;2.35;;;18.60;99.90;;;;;;5005440;28;20046;-67
2023/07/04 11:22:49;;;;;;;13.00;2.10;;;18.70;99.90;;;;;;5001974;28;20419;-66
2023/07/04 11:25:31;;;;;;;12.35;1.85;;;18.80;99.90;;;;;;5009738;28;20740;-68
2023/07/04 11:28:26;;;;;;;9.15;1.70;;;19.00;99.90;;;;;;5009247;28;20445;-68
2023/07/04 11:31:07;;;;;;;10.13;1.98;;;19.00;99.90;;;;;;5005532;28;20041;-69
2023/07/04 11:33:52;;;;;;;8.98;1.60;;;19.00;99.90;;;;;;5010004;28;20569;-67
2023/07/04 11:36:29;;;;;;;8.85;1.98;;;19.00;99.90;;;;;;5001057;28;20068;-68
2023/07/04 11:39:29;;;;;;;13.52;2.40;;;19.00;99.90;;;;;;5006857;28;20912;-68
2023/07/04 11:41:55;;;;;;;9.25;2.15;;;19.10;99.90;;;;;;4997051;28;20123;-68
2023/07/04 11:44:23;;;;;;;9.90;1.80;;;19.20;99.90;;;;;;5005924;28;20635;-69
2023/07/04 11:47:07;;;;;;;7.80;1.50;;;19.30;99.90;;;;;;5005120;28;21674;-66
2023/07/04 11:49:34;;;;;;;9.73;1.95;;;19.30;99.90;;;;;;5009156;28;20049;-73
2023/07/04 11:52:25;;;;;;;13.57;2.88;;;19.30;99.90;;;;;;5010958;28;20048;-74
2023/07/04 11:55:06;;;;;;;13.65;1.67;;;19.30;99.90;;;;;;5006389;28;20054;-67
2023/07/04 11:57:50;;;;;;;;;;;19.20;99.90;;;;;;5003047;28;20050;-67
2023/07/04 12:00:38;;;;;;;6.22;1.60;;;19.20;99.90;;;;;;5006779;28;19925;-68
2023/07/04 12:03:21;;;;;;;10.02;1.75;;;19.20;99.90;;;;;;4996724;28;20156;-67
2023/07/04 12:05:55;;;;;;;15.90;2.00;;;19.10;99.90;;;;;;4999675;28;20072;-68
2023/07/04 12:08:50;;;;;;;11.63;1.80;;;19.10;99.90;;;;;;5000171;28;20046;-67
2023/07/04 12:11:27;;;;;;;8.07;1.85;;;19.30;99.90;;;;;;5006392;28;20037;-69
2023/07/04 12:13:54;;;;;;;8.07;1.83;;;19.30;99.90;;;;;;5001997;28;20048;-75
2023/07/04 12:16:22;;;;;;;8.80;1.83;;;19.50;99.90;;;;;;5011204;28;20041;-75
2023/07/04 12:18:48;;;;;;;7.50;1.73;;;19.50;99.90;;;;;;4991891;28;20053;-77
2023/07/04 12:21:19;;;;;;;5.97;1.60;;;19.60;99.90;;;;;;5009151;28;20511;-74
2023/07/04 12:23:46;;;;;;;7.45;1.45;;;19.70;99.90;;;;;;5011753;28;20041;-73
2023/07/04 12:26:18;;;;;;;9.68;2.35;;;19.70;99.90;;;;;;5010221;28;20052;-73
2023/07/04 12:28:46;;;;;;;8.52;1.60;;;19.60;99.90;;;;;;5014867;28;20075;-74
2023/07/04 12:31:14;;;;;;;9.77;2.00;;;19.60;99.90;;;;;;5010073;28;20840;-74
2023/07/04 12:33:44;;;;;;;12.00;2.08;;;19.50;99.90;;;;;;4997400;28;20046;-74
2023/07/04 12:36:15;;;;;;;12.05;2.42;;;19.50;99.90;;;;;;5007201;28;20061;-74
2023/07/04 12:38:53;;;;;;;9.52;2.00;;;19.60;99.90;;;;;;5006058;28;20133;-75
2023/07/04 12:41:22;;;;;;;11.27;1.77;;;19.70;99.90;;;;;;5013930;28;20516;-75
2023/07/04 12:44:03;;;;;;;9.05;1.77;;;19.80;99.90;;;;;;5010663;28;20049;-74
2023/07/04 12:46:30;;;;;;;;;;;19.90;99.90;;;;;;4986273;28;20069;-75
2023/07/04 12:48:58;;;;;;;6.70;1.50;;;20.00;99.90;;;;;;5007963;28;19932;-75
2023/07/04 12:51:28;;;;;;;10.65;2.30;;;20.00;99.90;;;;;;5010802;28;20063;-75
2023/07/04 12:53:55;;;;;;;9.98;2.00;;;20.00;99.90;;;;;;5004794;28;20046;-74
2023/07/04 12:56:21;;;;;;;7.13;1.52;;;20.00;99.90;;;;;;5006753;28;20046;-75
2023/07/04 12:58:48;;;;;;;10.25;1.70;;;20.00;99.90;;;;;;5004155;28;20044;-72
2023/07/04 13:01:30;;;;;;;11.55;2.30;;;20.00;99.90;;;;;;5001558;28;20439;-72